Time;durP1;ratioP1;P1;durP2;ratioP2;P2;SDS_P1;SDS_P2;PMS_P1;PMS_P2;Temp;Humidity;BMP_temperature;BMP_pressure;BME280_temperature;BME280_humidity;BME280_pressure;Samples;Min_cycle;Max_cycle;Signal;HPM_P1;HPM_P2
2022/10/03 04:05:29;;;;;;;6.77;5.73;;;12.00;99.90;;;;;;5321575;22;20501;-64
2022/10/03 04:08:44;;;;;;;9.67;6.13;;;12.00;99.90;;;;;;5013699;28;20416;-66
2022/10/03 04:11:16;;;;;;;20.43;7.53;;;12.00;99.90;;;;;;4978893;28;20500;-66
2022/10/03 04:13:54;;;;;;;7.97;5.43;;;12.00;99.90;;;;;;4996285;28;20583;-65
2022/10/03 04:19:39;;;;;;;7.97;6.00;;;12.10;99.90;;;;;;4997663;28;20440;-66
2022/10/03 04:22:43;;;;;;;10.23;7.00;;;12.10;99.90;;;;;;4997887;28;20394;-66
2022/10/03 04:25:25;;;;;;;7.87;6.00;;;12.10;99.90;;;;;;4997505;28;20457;-65
2022/10/03 04:28:00;;;;;;;11.00;5.10;;;12.10;99.90;;;;;;4997298;28;20458;-65
2022/10/03 04:30:36;;;;;;;6.37;5.67;;;12.10;99.90;;;;;;4977918;28;20748;-65
2022/10/03 04:33:20;;;;;;;11.20;5.93;;;12.10;99.90;;;;;;4977495;28;20967;-66
2022/10/03 04:36:10;;;;;;;9.00;5.50;;;12.10;99.90;;;;;;4977294;28;20433;-66
2022/10/03 04:39:03;;;;;;;8.20;5.93;;;12.10;99.90;;;;;;4977788;28;20406;-65
2022/10/03 04:41:57;;;;;;;8.70;6.00;;;12.10;99.90;;;;;;4978150;28;20414;-66
2022/10/03 04:44:30;;;;;;;7.87;5.60;;;12.10;99.90;;;;;;4968313;28;20445;-65
2022/10/03 04:46:59;;;;;;;9.33;7.17;;;12.20;99.90;;;;;;4977632;28;20422;-66
2022/10/03 04:49:34;;;;;;;7.77;5.90;;;12.20;99.90;;;;;;4977380;28;20435;-66
2022/10/03 04:52:38;;;;;;;11.10;6.60;;;12.10;99.90;;;;;;4977745;28;20519;-66
2022/10/03 04:55:22;;;;;;;10.20;6.43;;;12.10;99.90;;;;;;4976190;28;20551;-65
2022/10/03 04:58:36;;;;;;;13.70;6.53;;;12.10;99.90;;;;;;4977284;28;20417;-66
2022/10/03 05:01:20;;;;;;;8.33;4.90;;;12.10;99.90;;;;;;4977741;28;20504;-66
2022/10/03 05:04:18;;;;;;;9.57;7.30;;;12.10;99.90;;;;;;4976902;28;20925;-65
2022/10/03 05:06:46;;;;;;;11.63;6.53;;;12.10;99.90;;;;;;4996343;28;20434;-65
2022/10/03 05:09:19;;;;;;;10.07;6.63;;;12.10;99.90;;;;;;4996631;28;20434;-65
2022/10/03 05:12:11;;;;;;;7.60;6.23;;;12.10;99.90;;;;;;4996605;28;20418;-65
2022/10/03 05:15:19;;;;;;;6.80;5.53;;;12.10;99.90;;;;;;4996030;28;20423;-65
2022/10/03 05:17:54;;;;;;;7.67;5.47;;;12.00;99.90;;;;;;4985368;28;20444;-66
2022/10/03 05:20:25;;;;;;;9.83;6.53;;;12.10;99.90;;;;;;4996626;28;20458;-65
2022/10/03 05:23:16;;;;;;;9.20;5.87;;;12.10;99.90;;;;;;4995928;28;20403;-65
2022/10/03 05:26:05;;;;;;;11.20;5.87;;;12.10;99.90;;;;;;4996254;28;20498;-65
2022/10/03 05:28:37;;;;;;;6.50;5.60;;;12.10;99.90;;;;;;4996390;28;20487;-65
2022/10/03 05:31:03;;;;;;;7.37;6.40;;;12.10;99.90;;;;;;4995589;28;20934;-65
2022/10/03 05:33:55;;;;;;;9.30;6.50;;;12.10;99.90;;;;;;4995992;28;20426;-65
2022/10/03 05:36:23;;;;;;;7.27;5.23;;;12.10;99.90;;;;;;4995994;28;20210;-67
2022/10/03 05:39:21;;;;;;;10.93;6.87;;;12.10;99.90;;;;;;4995479;28;20407;-65
2022/10/03 05:42:10;;;;;;;10.83;7.60;;;12.00;99.90;;;;;;4989243;28;20798;-67
2022/10/03 05:45:00;;;;;;;10.30;8.50;;;12.10;99.90;;;;;;4957670;28;20580;-67
2022/10/03 05:47:48;;;;;;;7.33;5.93;;;12.10;99.90;;;;;;4995758;28;20892;-65
2022/10/03 05:50:49;;;;;;;10.60;7.43;;;12.00;99.90;;;;;;4995991;28;20535;-67
2022/10/03 05:53:27;;;;;;;10.60;7.60;;;12.00;99.90;;;;;;4995425;28;20411;-67
2022/10/03 05:56:11;;;;;;;10.88;6.75;;;12.00;99.90;;;;;;4995872;28;20495;-68
2022/10/03 05:58:50;;;;;;;12.37;6.63;;;11.90;99.90;;;;;;4995853;28;20651;-68
2022/10/03 06:01:19;;;;;;;15.70;7.37;;;11.90;99.90;;;;;;4995876;28;20403;-65
2022/10/03 06:03:59;;;;;;;17.43;10.10;;;11.90;99.90;;;;;;4995030;28;20438;-66
2022/10/03 06:06:47;;;;;;;11.33;7.70;;;11.90;99.90;;;;;;4978211;28;20473;-67
2022/10/03 06:09:34;;;;;;;11.77;7.70;;;11.90;99.90;;;;;;4985080;28;20472;-68
2022/10/03 06:12:13;;;;;;;10.63;6.83;;;11.90;99.90;;;;;;4994560;28;20490;-67
2022/10/03 06:15:16;;;;;;;11.60;7.97;;;11.90;99.90;;;;;;4994595;28;20402;-67
2022/10/03 06:18:12;;;;;;;10.33;7.93;;;11.90;99.90;;;;;;4995361;28;20449;-67
2022/10/03 06:21:03;;;;;;;13.13;7.47;;;11.90;99.90;;;;;;4995118;28;20424;-68
2022/10/03 06:23:47;;;;;;;8.47;7.07;;;12.00;99.90;;;;;;4993458;28;20439;-70
2022/10/03 06:26:14;;;;;;;11.10;6.53;;;12.00;99.90;;;;;;4995374;28;20754;-69
2022/10/03 06:29:00;;;;;;;11.00;7.33;;;12.10;99.90;;;;;;4995137;28;20392;-68
2022/10/03 06:31:44;;;;;;;14.30;7.10;;;12.20;99.90;;;;;;4994554;28;20507;-68
2022/10/03 06:34:33;;;;;;;13.60;8.07;;;12.30;99.90;;;;;;4994386;28;20519;-68
2022/10/03 06:37:20;;;;;;;14.03;8.80;;;12.40;99.90;;;;;;4994215;28;20456;-65
2022/10/03 06:40:24;;;;;;;20.13;7.97;;;12.40;99.90;;;;;;4994225;28;20422;-64
2022/10/03 06:43:08;;;;;;;12.90;8.60;;;12.40;99.90;;;;;;4994221;28;20487;-64
2022/10/03 06:46:06;;;;;;;12.27;7.80;;;12.50;99.90;;;;;;4994837;28;20408;-65
2022/10/03 06:49:04;;;;;;;11.50;7.07;;;12.50;99.90;;;;;;4993217;28;20415;-67
2022/10/03 06:51:54;;;;;;;10.03;6.60;;;12.50;99.90;;;;;;4994911;28;20741;-65
2022/10/03 06:54:44;;;;;;;15.40;7.33;;;12.60;99.90;;;;;;4994296;28;20433;-67
2022/10/03 06:57:30;;;;;;;13.03;8.53;;;12.70;99.90;;;;;;4994585;28;20510;-66
2022/10/03 07:00:21;;;;;;;11.33;7.20;;;12.60;99.90;;;;;;4994476;28;21022;-65
2022/10/03 07:02:50;;;;;;;14.67;7.23;;;12.60;99.90;;;;;;4994259;28;20424;-64
2022/10/03 07:05:21;;;;;;;14.20;8.03;;;12.50;99.90;;;;;;4993082;28;20477;-65
2022/10/03 07:08:21;;;;;;;12.43;7.83;;;12.50;99.90;;;;;;4994193;28;20962;-65
2022/10/03 07:10:49;;;;;;;15.20;8.43;;;12.50;99.90;;;;;;4994514;28;20408;-65
2022/10/03 07:13:27;;;;;;;12.23;7.73;;;12.50;99.90;;;;;;4993811;28;20529;-64
2022/10/03 07:16:28;;;;;;;12.13;8.17;;;12.40;99.90;;;;;;4993983;28;20468;-65
2022/10/03 07:19:05;;;;;;;18.40;7.00;;;12.40;99.90;;;;;;4994577;28;20407;-65
2022/10/03 07:22:01;;;;;;;13.20;7.30;;;12.50;99.90;;;;;;4994063;28;20407;-65
2022/10/03 07:24:43;;;;;;;13.67;8.10;;;12.50;99.90;;;;;;4993656;28;20497;-65
2022/10/03 07:27:18;;;;;;;14.53;8.33;;;12.50;99.90;;;;;;4992975;28;20448;-65
2022/10/03 07:29:57;;;;;;;10.50;7.77;;;12.60;99.90;;;;;;4994121;28;20409;-65
2022/10/03 07:32:56;;;;;;;11.73;7.10;;;12.70;99.90;;;;;;4993755;28;20428;-65
2022/10/03 07:38:57;;;;;;;11.60;8.27;;;12.90;99.90;;;;;;4994310;28;20398;-65
2022/10/03 07:41:37;;;;;;;12.50;6.90;;;13.00;99.90;;;;;;4994002;28;20404;-65
2022/10/03 07:44:21;;;;;;;12.83;7.83;;;13.10;99.90;;;;;;4972750;28;20808;-65
2022/10/03 07:47:05;;;;;;;12.37;7.80;;;13.30;99.90;;;;;;4974761;28;20496;-64
2022/10/03 07:50:04;;;;;;;7.77;5.67;;;13.40;99.90;;;;;;4977454;28;20498;-65
2022/10/03 07:52:43;;;;;;;8.93;7.53;;;13.50;99.90;;;;;;4943950;28;20430;-65
2022/10/03 07:55:27;;;;;;;11.80;6.20;;;13.60;99.90;;;;;;4997964;28;20551;-65
2022/10/03 07:58:14;;;;;;;5.77;5.10;;;13.70;99.90;;;;;;4997952;28;20438;-65
2022/10/03 08:00:46;;;;;;;11.07;5.90;;;13.80;99.90;;;;;;4997820;28;20518;-65
2022/10/03 08:03:33;;;;;;;6.33;5.30;;;13.90;99.90;;;;;;4997140;28;20835;-65
2022/10/03 08:05:59;;;;;;;9.43;5.87;;;13.90;99.90;;;;;;4997702;28;20484;-66
2022/10/03 08:09:05;;;;;;;9.80;6.53;;;13.90;99.90;;;;;;4997797;28;20382;-65
2022/10/03 08:12:09;;;;;;;7.70;5.17;;;13.80;99.90;;;;;;4999420;28;20687;-65
2022/10/03 08:15:04;;;;;;;7.80;5.67;;;13.60;99.90;;;;;;4974295;28;20561;-66
2022/10/03 08:17:59;;;;;;;7.80;5.13;;;13.50;99.90;;;;;;4997014;28;20858;-65
2022/10/03 08:20:39;;;;;;;8.03;5.83;;;13.50;99.90;;;;;;4984307;28;20420;-66
2022/10/03 08:23:17;;;;;;;7.27;5.90;;;13.40;99.90;;;;;;4997081;28;20453;-66
2022/10/03 08:25:54;;;;;;;9.47;7.13;;;13.40;99.90;;;;;;4997350;28;20398;-65
2022/10/03 08:28:45;;;;;;;12.70;6.00;;;13.30;99.90;;;;;;4997256;28;20453;-65
2022/10/03 08:31:19;;;;;;;7.83;5.23;;;13.40;99.90;;;;;;4997191;28;20414;-65
2022/10/03 08:34:07;;;;;;;6.80;5.70;;;13.40;99.90;;;;;;4996904;28;20783;-66
2022/10/03 08:37:03;;;;;;;7.67;5.77;;;13.50;99.90;;;;;;4996098;28;20450;-65
2022/10/03 08:39:50;;;;;;;11.00;6.37;;;13.60;99.90;;;;;;4996064;28;20415;-65
2022/10/03 08:42:42;;;;;;;6.77;5.30;;;13.60;99.90;;;;;;4995573;28;20418;-66
2022/10/03 08:45:35;;;;;;;8.00;5.00;;;13.50;99.90;;;;;;4983300;28;20446;-65
2022/10/03 08:48:34;;;;;;;6.63;4.50;;;13.50;99.90;;;;;;4997035;28;20414;-65
2022/10/03 08:51:33;;;;;;;6.77;4.37;;;13.60;99.90;;;;;;4996725;28;20409;-66
2022/10/03 08:54:12;;;;;;;8.43;4.77;;;13.60;99.90;;;;;;4996526;28;20419;-65
2022/10/03 08:56:52;;;;;;;5.47;4.87;;;13.70;99.90;;;;;;4996757;28;20468;-66
2022/10/03 08:59:39;;;;;;;8.03;4.80;;;13.70;99.90;;;;;;4996944;28;20413;-65
2022/10/03 09:02:26;;;;;;;7.00;4.17;;;13.70;99.90;;;;;;4996150;28;20502;-66
2022/10/03 09:05:27;;;;;;;8.50;5.20;;;13.80;99.90;;;;;;4996038;28;20434;-65
2022/10/03 09:08:01;;;;;;;7.60;4.60;;;13.90;99.90;;;;;;4995742;28;20784;-64
2022/10/03 09:10:46;;;;;;;8.47;5.30;;;14.10;99.90;;;;;;4995039;28;20996;-65
2022/10/03 09:13:14;;;;;;;5.70;4.77;;;14.30;99.90;;;;;;4996029;28;20422;-66
2022/10/03 09:16:24;;;;;;;6.30;4.33;;;14.50;99.90;;;;;;4995283;28;20547;-65
2022/10/03 09:19:20;;;;;;;5.27;4.77;;;14.90;99.90;;;;;;4953304;28;20960;-66
2022/10/03 09:22:14;;;;;;;5.03;4.53;;;15.40;99.90;;;;;;4996153;28;20425;-65
2022/10/03 09:24:49;;;;;;;6.77;5.07;;;15.70;99.90;;;;;;4994398;28;20788;-65
2022/10/03 09:27:30;;;;;;;10.53;4.60;;;15.90;99.90;;;;;;4996215;28;20805;-66
2022/10/03 09:30:34;;;;;;;9.93;4.83;;;16.00;99.90;;;;;;4996352;28;20414;-66
2022/10/03 09:33:29;;;;;;;6.80;4.50;;;16.10;99.90;;;;;;4935596;29;20515;-66
2022/10/03 09:36:24;;;;;;;4.23;3.87;;;16.30;99.90;;;;;;4936208;29;20457;-65
2022/10/03 09:38:58;;;;;;;12.83;5.10;;;16.30;99.90;;;;;;4970902;28;20466;-66
2022/10/03 09:41:56;;;;;;;6.20;3.70;;;16.40;99.90;;;;;;4980261;28;20418;-66
2022/10/03 09:44:22;;;;;;;5.20;4.77;;;;;;;;;;4995608;28;20434;-66
2022/10/03 09:47:22;;;;;;;4.70;3.60;;;;;;;;;;4996039;28;20414;-66
2022/10/03 09:50:27;;;;;;;5.57;4.30;;;16.60;99.90;;;;;;4995898;28;20783;-66
2022/10/03 09:53:16;;;;;;;4.07;2.93;;;17.10;99.90;;;;;;4995315;28;20430;-66
2022/10/03 09:56:19;;;;;;;4.50;3.33;;;16.90;99.90;;;;;;4995231;28;20458;-66
2022/10/03 09:59:12;;;;;;;3.50;3.20;;;16.60;99.90;;;;;;4995670;28;20415;-66
2022/10/03 10:02:25;;;;;;;8.87;5.80;;;16.40;99.90;;;;;;4995399;28;20448;-67
2022/10/03 10:05:24;;;;;;;4.57;3.60;;;16.40;99.90;;;;;;4995281;28;20461;-67
2022/10/03 10:08:21;;;;;;;3.70;3.40;;;16.60;99.90;;;;;;4996242;28;20764;-65
2022/10/03 10:10:58;;;;;;;4.20;3.80;;;16.80;99.90;;;;;;4995173;28;20963;-66
2022/10/03 10:13:54;;;;;;;5.20;4.70;;;16.90;99.90;;;;;;4994623;28;20473;-66
2022/10/03 10:16:52;;;;;;;4.77;3.87;;;17.00;99.90;;;;;;4996118;28;20450;-66
2022/10/03 10:19:47;;;;;;;4.77;4.30;;;17.00;99.90;;;;;;4952349;28;20729;-66
2022/10/03 10:22:42;;;;;;;7.07;4.57;;;17.10;99.90;;;;;;4969824;28;20938;-66
2022/10/03 10:25:30;;;;;;;3.90;2.93;;;;;;;;;;4948328;28;20454;-67
2022/10/03 10:28:20;;;;;;;4.30;3.07;;;17.60;99.90;;;;;;4977931;28;20415;-66
2022/10/03 10:31:00;;;;;;;6.03;3.37;;;19.30;99.90;;;;;;4987110;28;20427;-66
2022/10/03 10:33:29;;;;;;;5.37;3.87;;;19.70;99.90;;;;;;4995831;28;20465;-67
2022/10/03 10:36:06;;;;;;;3.57;3.20;;;19.70;99.90;;;;;;4995833;28;20466;-66
2022/10/03 10:38:52;;;;;;;5.30;3.47;;;19.70;99.90;;;;;;4995587;28;20425;-66
2022/10/03 10:41:26;;;;;;;4.70;3.97;;;20.10;99.90;;;;;;4993409;28;20441;-66
2022/10/03 10:44:22;;;;;;;3.50;3.20;;;20.10;99.90;;;;;;4994680;28;20775;-67
2022/10/03 10:47:28;;;;;;;3.63;3.00;;;20.00;99.90;;;;;;4994813;28;20411;-66
2022/10/03 10:50:15;;;;;;;5.30;3.20;;;19.60;99.90;;;;;;4994616;28;20512;-66
2022/10/03 10:53:46;;;;;;;3.07;2.77;;;19.20;99.90;;;;;;4994378;28;20377;-66
2022/10/03 10:56:45;;;;;;;4.53;3.60;;;18.70;99.90;;;;;;4915712;29;20443;-66
2022/10/03 10:59:41;;;;;;;2.90;2.70;;;18.70;99.90;;;;;;4915906;29;20385;-65
2022/10/03 11:02:32;;;;;;;7.40;3.73;;;18.80;99.90;;;;;;4968401;28;20519;-65
2022/10/03 11:05:39;;;;;;;4.13;3.53;;;18.70;99.90;;;;;;4974713;28;20459;-70
2022/10/03 11:08:41;;;;;;;3.90;3.60;;;18.60;99.90;;;;;;4953837;28;20564;-69
2022/10/03 11:11:25;;;;;;;4.40;3.67;;;18.40;99.90;;;;;;4986643;28;20511;-70
2022/10/03 11:14:12;;;;;;;4.87;3.33;;;18.20;99.90;;;;;;4993842;28;20926;-70
2022/10/03 11:16:52;;;;;;;4.17;3.03;;;18.00;99.90;;;;;;4994113;28;20425;-70
2022/10/03 11:19:56;;;;;;;7.50;3.53;;;17.60;99.90;;;;;;4994115;28;20461;-71
2022/10/03 11:22:28;;;;;;;6.00;3.27;;;17.60;99.90;;;;;;4993783;28;20422;-70
2022/10/03 11:25:14;;;;;;;3.60;3.03;;;17.70;99.90;;;;;;4993528;28;20444;-71
2022/10/03 11:28:17;;;;;;;6.93;3.17;;;17.80;99.90;;;;;;4993800;28;20422;-69
2022/10/03 11:30:46;;;;;;;4.10;2.80;;;18.00;99.90;;;;;;4993944;28;20406;-67
2022/10/03 11:33:37;;;;;;;3.20;2.90;;;18.00;99.90;;;;;;4993405;28;20439;-67
2022/10/03 11:36:33;;;;;;;6.73;3.97;;;18.00;99.90;;;;;;4979766;28;20444;-66
2022/10/03 11:39:03;;;;;;;6.30;3.63;;;18.10;99.90;;;;;;4993962;28;20407;-66
2022/10/03 11:41:38;;;;;;;5.40;3.27;;;18.10;99.90;;;;;;4994213;28;20495;-66
2022/10/03 11:44:43;;;;;;;7.10;3.40;;;18.10;99.90;;;;;;4993266;28;20504;-67
2022/10/03 11:47:45;;;;;;;2.70;2.50;;;18.10;99.90;;;;;;4934138;29;20457;-67
2022/10/03 11:50:32;;;;;;;5.63;3.47;;;18.00;99.90;;;;;;4994025;28;20385;-67
2022/10/03 11:53:06;;;;;;;3.37;2.90;;;17.90;99.90;;;;;;4993532;28;20418;-68
2022/10/03 11:55:40;;;;;;;4.37;2.47;;;17.90;99.90;;;;;;4974670;28;20504;-68
2022/10/03 11:58:32;;;;;;;2.70;2.47;;;17.80;99.90;;;;;;4974593;28;20411;-66
2022/10/03 12:01:15;;;;;;;2.10;2.00;;;17.70;99.90;;;;;;4974568;28;20415;-67
2022/10/03 12:04:01;;;;;;;2.60;2.40;;;17.60;99.90;;;;;;4978828;28;20515;-67
2022/10/03 12:10:02;;;;;;;3.63;3.13;;;17.30;99.90;;;;;;4950820;28;20424;-68
2022/10/03 12:12:42;;;;;;;3.40;3.10;;;17.20;99.90;;;;;;4982558;28;20479;-68
2022/10/03 12:15:34;;;;;;;2.63;2.43;;;17.20;99.90;;;;;;4980113;28;20459;-68
2022/10/03 12:18:37;;;;;;;3.00;2.30;;;17.40;99.90;;;;;;4973918;28;20419;-69
2022/10/03 12:21:10;;;;;;;6.07;2.00;;;17.50;99.90;;;;;;4992970;28;20780;-68
2022/10/03 12:23:50;;;;;;;2.13;1.93;;;17.60;99.90;;;;;;4992407;28;20477;-67
2022/10/03 12:26:42;;;;;;;6.00;3.13;;;17.50;99.90;;;;;;4992742;28;20541;-68
2022/10/03 12:29:11;;;;;;;2.20;2.00;;;17.50;99.90;;;;;;4944281;28;20851;-69
2022/10/03 12:32:01;;;;;;;3.17;2.10;;;17.60;99.90;;;;;;4976242;28;20493;-68
2022/10/03 12:34:38;;;;;;;2.60;2.40;;;17.80;99.90;;;;;;4993055;28;20445;-68
2022/10/03 12:37:22;;;;;;;1.90;1.80;;;17.90;99.90;;;;;;4997050;28;20509;-68
2022/10/03 12:40:28;;;;;;;4.10;2.03;;;17.80;99.90;;;;;;4997160;28;20419;-68
2022/10/03 12:43:44;;;;;;;2.87;2.13;;;17.80;99.90;;;;;;4996653;28;20406;-68
2022/10/03 12:46:21;;;;;;;2.47;2.10;;;17.70;99.90;;;;;;4898460;29;20419;-68
2022/10/03 12:48:56;;;;;;;4.27;1.80;;;17.50;99.90;;;;;;4984384;28;20746;-68
2022/10/03 12:51:51;;;;;;;2.40;2.20;;;17.40;99.90;;;;;;4996941;28;20413;-68
2022/10/03 12:54:28;;;;;;;3.53;3.10;;;17.30;99.90;;;;;;4995803;28;21025;-69
2022/10/03 12:57:06;;;;;;;4.37;2.27;;;17.20;99.90;;;;;;4996468;28;20808;-68
2022/10/03 12:59:41;;;;;;;2.40;2.10;;;17.10;99.90;;;;;;4996918;28;20510;-68
2022/10/03 13:02:34;;;;;;;2.83;2.37;;;17.20;99.90;;;;;;4996254;28;20511;-68
2022/10/03 13:05:11;;;;;;;2.80;2.47;;;17.30;99.90;;;;;;4996539;28;20820;-67
2022/10/03 13:07:59;;;;;;;1.60;1.50;;;17.20;99.90;;;;;;4996184;28;20429;-68
2022/10/03 13:10:49;;;;;;;2.80;1.90;;;17.10;99.90;;;;;;4996576;28;20511;-68
2022/10/03 13:13:21;;;;;;;2.13;1.90;;;17.10;99.90;;;;;;4996325;28;20526;-68
2022/10/03 13:16:03;;;;;;;5.00;1.90;;;17.10;99.90;;;;;;4996495;28;20561;-67
2022/10/03 13:18:58;;;;;;;1.73;1.63;;;17.00;99.50;;;;;;4977110;28;20761;-68
2022/10/03 13:21:47;;;;;;;1.97;1.83;;;17.00;99.30;;;;;;4977105;28;20402;-67
2022/10/03 13:24:24;;;;;;;2.40;1.77;;;17.00;99.90;;;;;;4976773;28;20442;-68
2022/10/03 13:27:09;;;;;;;1.50;1.47;;;16.80;99.90;;;;;;4986489;28;20799;-68
2022/10/03 13:29:49;;;;;;;3.43;1.77;;;16.80;99.90;;;;;;4996104;28;20443;-68
2022/10/03 13:32:30;;;;;;;1.60;1.50;;;16.80;99.60;;;;;;4996199;28;20485;-67
2022/10/03 13:38:45;;;;;;;2.20;2.00;;;16.60;99.40;;;;;;4995512;28;20560;-67
2022/10/03 13:41:29;;;;;;;4.20;2.23;;;16.60;99.60;;;;;;4996086;28;20463;-68
2022/10/03 13:44:03;;;;;;;2.20;2.00;;;16.60;99.60;;;;;;4995495;28;20471;-68
2022/10/03 13:46:39;;;;;;;1.73;1.63;;;16.60;99.70;;;;;;4995708;28;20423;-67
2022/10/03 13:49:34;;;;;;;1.40;1.30;;;16.60;99.90;;;;;;4995844;28;20414;-68
2022/10/03 13:52:22;;;;;;;2.20;2.00;;;16.60;99.90;;;;;;4995832;28;20439;-68
2022/10/03 13:55:27;;;;;;;4.30;1.90;;;16.70;99.90;;;;;;4995611;28;20976;-68
2022/10/03 13:58:27;;;;;;;3.07;1.53;;;16.70;99.90;;;;;;4995516;28;20822;-67
2022/10/03 14:01:23;;;;;;;1.70;1.60;;;16.80;99.90;;;;;;4981868;28;20873;-68
2022/10/03 14:03:56;;;;;;;2.10;2.00;;;16.70;99.90;;;;;;4986433;28;20443;-68
2022/10/03 14:06:30;;;;;;;3.47;2.43;;;16.60;99.90;;;;;;4995347;28;20516;-67
2022/10/03 14:09:34;;;;;;;8.87;2.47;;;16.50;99.90;;;;;;4995672;28;20407;-66
2022/10/03 14:12:20;;;;;;;2.83;1.77;;;16.40;99.90;;;;;;4995288;28;20404;-67
2022/10/03 14:14:59;;;;;;;2.20;2.10;;;16.20;99.90;;;;;;4995194;28;20415;-67
2022/10/03 14:17:47;;;;;;;4.33;1.83;;;16.20;99.90;;;;;;4995013;28;21036;-67
2022/10/03 14:20:30;;;;;;;2.83;2.20;;;16.30;99.90;;;;;;4995166;28;20407;-67
2022/10/03 14:23:11;;;;;;;6.70;1.87;;;16.30;99.90;;;;;;4995008;28;20411;-67
2022/10/03 14:25:40;;;;;;;2.00;1.70;;;16.30;99.90;;;;;;4995413;28;20411;-67
2022/10/03 14:28:17;;;;;;;1.80;1.70;;;16.30;99.80;;;;;;4994979;28;20428;-68
2022/10/03 14:30:59;;;;;;;2.50;2.07;;;16.40;99.20;;;;;;4995145;28;20505;-67
2022/10/03 14:33:40;;;;;;;2.87;2.40;;;16.40;99.40;;;;;;4994557;28;20411;-67
2022/10/03 14:36:43;;;;;;;1.80;1.63;;;16.50;98.90;;;;;;4994707;28;20448;-68
2022/10/03 14:39:28;;;;;;;2.17;1.70;;;16.40;99.00;;;;;;4994709;28;20406;-68
2022/10/03 14:41:53;;;;;;;1.70;1.60;;;16.30;99.10;;;;;;4991830;28;20431;-68
2022/10/03 14:44:23;;;;;;;2.30;1.90;;;16.30;99.50;;;;;;4994361;28;20463;-67
2022/10/03 14:46:56;;;;;;;2.00;1.80;;;16.30;99.10;;;;;;4994433;28;20531;-67
2022/10/03 14:49:32;;;;;;;2.83;2.13;;;16.30;98.90;;;;;;4994675;28;20404;-67
2022/10/03 14:52:08;;;;;;;3.50;2.53;;;16.30;99.80;;;;;;4994733;28;20407;-68
2022/10/03 14:54:36;;;;;;;2.07;1.73;;;16.40;99.80;;;;;;4994409;28;20511;-69
2022/10/03 14:57:27;;;;;;;2.10;2.00;;;16.40;99.40;;;;;;4994484;28;20787;-67
2022/10/03 14:59:56;;;;;;;2.83;1.93;;;16.50;98.90;;;;;;4994293;28;20401;-68
2022/10/03 15:02:37;;;;;;;2.40;1.73;;;16.50;98.50;;;;;;4994319;28;20401;-68
2022/10/03 15:05:22;;;;;;;3.27;1.80;;;16.50;98.70;;;;;;4994312;28;20451;-68
2022/10/03 15:07:49;;;;;;;6.37;1.90;;;16.40;98.80;;;;;;4994314;28;20430;-68
2022/10/03 15:10:21;;;;;;;2.70;1.90;;;16.30;98.90;;;;;;4994595;28;20407;-68
2022/10/03 15:12:52;;;;;;;3.60;2.13;;;16.30;99.80;;;;;;4994245;28;20512;-68
2022/10/03 15:15:24;;;;;;;3.77;1.70;;;16.10;99.90;;;;;;4993059;28;20446;-70
2022/10/03 15:17:53;;;;;;;1.73;1.63;;;16.20;99.90;;;;;;4994252;28;20454;-69
2022/10/03 15:20:25;;;;;;;4.43;2.23;;;16.10;99.80;;;;;;4993167;28;20466;-69
2022/10/03 15:22:57;;;;;;;1.63;1.53;;;16.10;99.70;;;;;;4994167;28;20425;-69
2022/10/03 15:25:32;;;;;;;1.30;1.30;;;16.00;99.40;;;;;;4994180;28;20422;-69
2022/10/03 15:28:03;;;;;;;2.30;2.20;;;15.90;99.90;;;;;;4993735;28;20472;-69
2022/10/03 15:30:38;;;;;;;3.47;2.13;;;15.90;99.40;;;;;;4992766;28;20927;-69
2022/10/03 15:33:14;;;;;;;3.43;2.13;;;15.80;99.90;;;;;;4993396;28;20433;-67
2022/10/03 15:35:42;;;;;;;2.10;1.90;;;15.70;99.90;;;;;;4994076;28;20457;-68
2022/10/03 15:38:25;;;;;;;2.40;2.20;;;15.60;99.90;;;;;;4993962;28;20415;-69
2022/10/03 15:41:07;;;;;;;2.80;2.50;;;15.60;99.90;;;;;;4994117;28;20414;-68
2022/10/03 15:43:51;;;;;;;2.93;2.10;;;15.70;99.90;;;;;;4993216;28;20438;-68
2022/10/03 15:46:33;;;;;;;3.30;2.37;;;15.70;99.90;;;;;;4994086;28;20403;-68
2022/10/03 15:49:18;;;;;;;2.50;2.23;;;15.60;99.90;;;;;;4994141;28;20407;-68
2022/10/03 15:51:46;;;;;;;2.50;2.30;;;15.50;99.90;;;;;;4993415;28;20461;-67
2022/10/03 15:54:19;;;;;;;4.60;2.67;;;15.50;99.90;;;;;;4993343;28;20919;-68
2022/10/03 15:56:51;;;;;;;6.13;2.80;;;15.40;99.90;;;;;;4993767;28;20863;-68
2022/10/03 15:59:26;;;;;;;2.30;2.10;;;15.40;99.90;;;;;;4994353;28;20901;-68
2022/10/03 16:01:54;;;;;;;5.77;1.97;;;15.40;99.90;;;;;;4993544;28;20418;-67
2022/10/03 16:04:20;;;;;;;2.10;2.00;;;15.40;99.90;;;;;;4993218;28;20442;-68
2022/10/03 16:06:56;;;;;;;4.40;2.73;;;15.40;99.90;;;;;;4993752;28;20411;-67
2022/10/03 16:09:36;;;;;;;2.50;2.03;;;15.40;99.90;;;;;;4993720;28;20174;-66
2022/10/03 16:12:07;;;;;;;1.80;1.70;;;15.30;99.90;;;;;;4997351;28;20497;-68
2022/10/03 16:14:44;;;;;;;2.13;2.03;;;15.30;99.90;;;;;;4997083;28;20426;-68
2022/10/03 16:17:21;;;;;;;1.93;1.77;;;15.20;99.90;;;;;;4997478;28;20808;-67
2022/10/03 16:19:55;;;;;;;2.90;2.70;;;15.20;99.90;;;;;;4997746;28;20777;-67
2022/10/03 16:22:56;;;;;;;1.70;1.60;;;15.10;99.90;;;;;;4996950;28;20441;-67
2022/10/03 16:25:27;;;;;;;2.97;1.80;;;15.10;99.90;;;;;;4996686;28;20446;-68
2022/10/03 16:28:02;;;;;;;3.43;2.60;;;15.10;99.90;;;;;;4997629;28;20461;-68
2022/10/03 16:30:36;;;;;;;6.20;2.40;;;15.00;99.90;;;;;;4997408;28;20963;-68
2022/10/03 16:33:31;;;;;;;4.27;2.47;;;15.00;99.90;;;;;;4996836;28;20436;-68
2022/10/03 16:36:02;;;;;;;1.90;1.80;;;14.90;99.90;;;;;;4997291;28;20497;-68
2022/10/03 16:38:39;;;;;;;2.80;2.30;;;14.80;99.90;;;;;;4994114;28;20438;-68
2022/10/03 16:41:17;;;;;;;5.80;2.20;;;14.70;99.90;;;;;;4996036;28;20437;-68
2022/10/03 16:43:58;;;;;;;4.53;3.80;;;14.60;99.90;;;;;;4992612;28;20426;-68
2022/10/03 16:46:26;;;;;;;4.57;3.20;;;14.60;99.90;;;;;;4977774;28;20427;-67
2022/10/03 16:51:45;;;;;;;3.40;2.53;;;14.30;99.90;;;;;;4985622;28;20841;-69
2022/10/03 16:54:17;;;;;;;6.83;3.20;;;14.20;99.90;;;;;;4996255;28;20458;-68
2022/10/03 16:56:47;;;;;;;5.57;4.87;;;14.10;99.90;;;;;;4996717;28;20469;-67
2022/10/03 16:59:18;;;;;;;4.23;3.20;;;14.10;99.90;;;;;;4997222;28;20417;-68
2022/10/03 17:01:48;;;;;;;4.80;4.40;;;14.00;99.90;;;;;;4996411;28;20429;-67
2022/10/03 17:04:23;;;;;;;7.27;3.50;;;13.90;99.90;;;;;;4996317;28;20441;-67
2022/10/03 17:06:53;;;;;;;5.67;3.80;;;13.80;99.90;;;;;;4996867;28;20452;-67
2022/10/03 17:09:36;;;;;;;7.20;3.50;;;13.80;99.90;;;;;;4996632;28;20414;-68
2022/10/03 17:12:05;;;;;;;3.97;3.30;;;13.60;99.90;;;;;;4996381;28;20501;-67
2022/10/03 17:14:40;;;;;;;7.30;4.17;;;13.50;99.90;;;;;;4994668;28;20444;-68
2022/10/03 17:17:20;;;;;;;4.53;3.30;;;13.50;99.90;;;;;;4996602;28;20510;-68
2022/10/03 17:20:05;;;;;;;3.77;2.97;;;13.40;99.90;;;;;;4996392;28;20448;-69
2022/10/03 17:22:39;;;;;;;5.07;3.27;;;13.30;99.90;;;;;;4995202;28;20417;-67
2022/10/03 17:25:33;;;;;;;3.77;3.37;;;13.20;99.90;;;;;;4996513;28;20421;-68
2022/10/03 17:28:05;;;;;;;4.10;3.50;;;13.10;99.90;;;;;;4989150;28;20815;-67
2022/10/03 17:30:44;;;;;;;16.43;12.00;;;13.00;99.90;;;;;;4996286;28;20412;-67
2022/10/03 17:33:16;;;;;;;11.03;8.90;;;12.90;99.90;;;;;;4995434;28;20423;-67
2022/10/03 17:35:55;;;;;;;9.10;5.10;;;12.90;99.90;;;;;;4995937;28;20463;-68
2022/10/03 17:38:21;;;;;;;5.40;4.77;;;12.80;99.90;;;;;;4996563;28;20405;-68
2022/10/03 17:41:04;;;;;;;10.97;5.23;;;12.80;99.90;;;;;;4996254;28;20882;-67
2022/10/03 17:43:48;;;;;;;6.97;4.60;;;12.80;99.90;;;;;;4976161;28;20209;-66
2022/10/03 17:46:34;;;;;;;7.67;4.30;;;12.70;99.90;;;;;;4976447;28;20445;-67
2022/10/03 17:49:38;;;;;;;7.63;5.10;;;12.70;99.90;;;;;;4976617;28;20831;-68
2022/10/03 17:52:10;;;;;;;4.93;4.20;;;12.70;99.90;;;;;;4983629;28;20418;-67
2022/10/03 17:54:38;;;;;;;4.10;3.80;;;12.60;99.90;;;;;;4995518;28;20427;-68
2022/10/03 17:57:13;;;;;;;7.03;4.80;;;12.60;99.90;;;;;;4995553;28;20809;-68
2022/10/03 18:00:07;;;;;;;5.93;4.87;;;12.50;99.90;;;;;;4995523;28;20414;-66
2022/10/03 18:03:03;;;;;;;9.02;8.13;;;12.40;99.90;;;;;;4994846;28;20415;-67
2022/10/03 18:05:52;;;;;;;5.10;4.60;;;12.30;99.90;;;;;;4993383;28;20227;-67
2022/10/03 18:08:22;;;;;;;4.27;3.80;;;12.20;99.90;;;;;;4994690;28;20196;-67
2022/10/03 18:10:51;;;;;;;4.47;4.07;;;12.10;99.90;;;;;;4995297;28;20423;-66
2022/10/03 18:13:36;;;;;;;8.00;4.88;;;12.10;99.90;;;;;;4994833;28;20185;-69
2022/10/03 18:16:26;;;;;;;5.30;4.22;;;12.00;99.90;;;;;;4995398;28;20199;-67
2022/10/03 18:19:07;;;;;;;6.00;5.00;;;12.00;99.90;;;;;;4993524;28;20185;-68
2022/10/03 18:21:42;;;;;;;8.83;6.50;;;11.90;99.90;;;;;;4982093;28;20926;-68
2022/10/03 18:24:39;;;;;;;7.80;7.00;;;11.90;99.90;;;;;;4982814;28;20435;-68
2022/10/03 18:27:36;;;;;;;9.00;7.60;;;11.90;99.90;;;;;;4947545;28;20429;-68
2022/10/03 18:30:05;;;;;;;7.80;7.00;;;11.80;99.90;;;;;;4984290;28;20230;-67
2022/10/03 18:32:36;;;;;;;8.83;7.73;;;11.70;99.90;;;;;;4983883;28;20182;-67